sensor_id;sensor_type;location;lat;lon;timestamp;P1;durP1;ratioP1;P2;durP2;ratioP2
38089;SDS011;23904;52.322;10.232;2023-05-20T00:00:05;4.70;;;2.20;;
38089;SDS011;23904;52.322;10.232;2023-05-20T00:02:32;4.50;;;2.30;;
38089;SDS011;23904;52.322;10.232;2023-05-20T00:04:58;3.60;;;2.05;;
38089;SDS011;23904;52.322;10.232;2023-05-20T00:07:24;4.25;;;1.88;;
38089;SDS011;23904;52.322;10.232;2023-05-20T00:09:50;5.45;;;1.65;;
38089;SDS011;23904;52.322;10.232;2023-05-20T00:12:15;4.97;;;2.42;;
38089;SDS011;23904;52.322;10.232;2023-05-20T00:14:41;4.10;;;1.98;;
38089;SDS011;23904;52.322;10.232;2023-05-20T00:17:06;4.13;;;2.08;;
38089;SDS011;23904;52.322;10.232;2023-05-20T00:19:32;5.65;;;2.10;;
38089;SDS011;23904;52.322;10.232;2023-05-20T00:21:58;4.80;;;2.42;;
38089;SDS011;23904;52.322;10.232;2023-05-20T00:24:23;4.97;;;2.67;;
38089;SDS011;23904;52.322;10.232;2023-05-20T00:26:49;3.88;;;2.03;;
38089;SDS011;23904;52.322;10.232;2023-05-20T00:29:15;3.75;;;2.30;;
38089;SDS011;23904;52.322;10.232;2023-05-20T00:31:41;5.07;;;2.30;;
38089;SDS011;23904;52.322;10.232;2023-05-20T00:34:06;4.13;;;2.25;;
38089;SDS011;23904;52.322;10.232;2023-05-20T00:36:34;6.47;;;2.45;;
38089;SDS011;23904;52.322;10.232;2023-05-20T00:38:59;3.72;;;2.25;;
38089;SDS011;23904;52.322;10.232;2023-05-20T00:41:25;6.32;;;2.20;;
38089;SDS011;23904;52.322;10.232;2023-05-20T00:43:54;6.60;;;2.33;;
38089;SDS011;23904;52.322;10.232;2023-05-20T00:46:21;3.88;;;1.80;;
38089;SDS011;23904;52.322;10.232;2023-05-20T00:48:47;7.25;;;2.15;;
38089;SDS011;23904;52.322;10.232;2023-05-20T00:51:14;5.57;;;2.67;;
38089;SDS011;23904;52.322;10.232;2023-05-20T00:53:41;5.45;;;2.20;;
38089;SDS011;23904;52.322;10.232;2023-05-20T00:56:07;6.82;;;2.00;;
38089;SDS011;23904;52.322;10.232;2023-05-20T00:58:36;5.47;;;2.38;;
38089;SDS011;23904;52.322;10.232;2023-05-20T01:01:03;5.25;;;2.20;;
38089;SDS011;23904;52.322;10.232;2023-05-20T01:03:30;6.47;;;2.25;;
38089;SDS011;23904;52.322;10.232;2023-05-20T01:05:56;4.72;;;1.85;;
38089;SDS011;23904;52.322;10.232;2023-05-20T01:08:22;4.10;;;2.25;;
38089;SDS011;23904;52.322;10.232;2023-05-20T01:10:57;4.15;;;1.85;;
38089;SDS011;23904;52.322;10.232;2023-05-20T01:13:32;3.78;;;2.10;;
38089;SDS011;23904;52.322;10.232;2023-05-20T01:16:09;4.93;;;2.30;;
38089;SDS011;23904;52.322;10.232;2023-05-20T01:18:35;7.65;;;2.55;;
38089;SDS011;23904;52.322;10.232;2023-05-20T01:21:03;3.15;;;1.73;;
38089;SDS011;23904;52.322;10.232;2023-05-20T01:23:38;4.85;;;2.08;;
38089;SDS011;23904;52.322;10.232;2023-05-20T01:26:05;3.10;;;1.75;;
38089;SDS011;23904;52.322;10.232;2023-05-20T01:28:32;9.00;;;2.50;;
38089;SDS011;23904;52.322;10.232;2023-05-20T01:31:00;3.88;;;2.00;;
38089;SDS011;23904;52.322;10.232;2023-05-20T01:33:29;4.80;;;2.03;;
38089;SDS011;23904;52.322;10.232;2023-05-20T01:35:56;3.90;;;2.00;;
38089;SDS011;23904;52.322;10.232;2023-05-20T01:38:22;7.30;;;2.47;;
38089;SDS011;23904;52.322;10.232;2023-05-20T01:40:49;4.50;;;2.28;;
38089;SDS011;23904;52.322;10.232;2023-05-20T01:43:15;7.57;;;2.15;;
38089;SDS011;23904;52.322;10.232;2023-05-20T01:45:42;3.40;;;2.00;;
38089;SDS011;23904;52.322;10.232;2023-05-20T01:48:11;4.30;;;2.20;;
38089;SDS011;23904;52.322;10.232;2023-05-20T01:50:37;3.65;;;2.10;;
38089;SDS011;23904;52.322;10.232;2023-05-20T01:53:03;4.32;;;2.20;;
38089;SDS011;23904;52.322;10.232;2023-05-20T01:55:29;5.65;;;2.10;;
38089;SDS011;23904;52.322;10.232;2023-05-20T01:57:55;6.68;;;2.33;;
38089;SDS011;23904;52.322;10.232;2023-05-20T02:00:20;3.70;;;2.25;;
38089;SDS011;23904;52.322;10.232;2023-05-20T02:02:46;3.45;;;1.95;;
38089;SDS011;23904;52.322;10.232;2023-05-20T02:05:12;5.95;;;2.55;;
38089;SDS011;23904;52.322;10.232;2023-05-20T02:07:38;5.55;;;2.25;;
38089;SDS011;23904;52.322;10.232;2023-05-20T02:10:04;4.50;;;1.90;;
38089;SDS011;23904;52.322;10.232;2023-05-20T02:12:30;5.38;;;2.53;;
38089;SDS011;23904;52.322;10.232;2023-05-20T02:14:56;6.18;;;1.88;;
38089;SDS011;23904;52.322;10.232;2023-05-20T02:17:22;6.05;;;2.42;;
38089;SDS011;23904;52.322;10.232;2023-05-20T02:19:47;7.72;;;2.03;;
38089;SDS011;23904;52.322;10.232;2023-05-20T02:22:13;6.28;;;2.47;;
38089;SDS011;23904;52.322;10.232;2023-05-20T02:24:39;4.78;;;2.10;;
38089;SDS011;23904;52.322;10.232;2023-05-20T02:27:07;3.53;;;2.67;;
38089;SDS011;23904;52.322;10.232;2023-05-20T02:29:32;6.55;;;2.15;;
38089;SDS011;23904;52.322;10.232;2023-05-20T02:31:58;8.57;;;2.05;;
38089;SDS011;23904;52.322;10.232;2023-05-20T02:34:23;3.70;;;2.30;;
38089;SDS011;23904;52.322;10.232;2023-05-20T02:36:50;3.65;;;2.25;;
38089;SDS011;23904;52.322;10.232;2023-05-20T02:39:16;7.55;;;2.40;;
38089;SDS011;23904;52.322;10.232;2023-05-20T02:41:42;3.45;;;2.08;;
38089;SDS011;23904;52.322;10.232;2023-05-20T02:44:07;9.15;;;2.20;;
38089;SDS011;23904;52.322;10.232;2023-05-20T02:46:33;3.38;;;2.13;;
38089;SDS011;23904;52.322;10.232;2023-05-20T02:48:59;4.97;;;2.40;;
38089;SDS011;23904;52.322;10.232;2023-05-20T02:51:24;5.35;;;2.35;;
38089;SDS011;23904;52.322;10.232;2023-05-20T02:53:50;5.55;;;1.95;;
38089;SDS011;23904;52.322;10.232;2023-05-20T02:56:15;13.13;;;2.92;;
38089;SDS011;23904;52.322;10.232;2023-05-20T02:58:45;7.40;;;1.92;;
38089;SDS011;23904;52.322;10.232;2023-05-20T03:01:11;4.60;;;2.25;;
38089;SDS011;23904;52.322;10.232;2023-05-20T03:03:36;3.83;;;2.20;;
38089;SDS011;23904;52.322;10.232;2023-05-20T03:06:02;5.68;;;2.30;;
38089;SDS011;23904;52.322;10.232;2023-05-20T03:08:28;3.85;;;1.80;;
38089;SDS011;23904;52.322;10.232;2023-05-20T03:10:53;3.80;;;2.30;;
38089;SDS011;23904;52.322;10.232;2023-05-20T03:13:19;5.20;;;1.95;;
38089;SDS011;23904;52.322;10.232;2023-05-20T03:15:45;7.18;;;2.25;;
38089;SDS011;23904;52.322;10.232;2023-05-20T03:18:11;4.72;;;2.17;;
38089;SDS011;23904;52.322;10.232;2023-05-20T03:20:37;6.57;;;2.97;;
38089;SDS011;23904;52.322;10.232;2023-05-20T03:23:03;3.83;;;2.08;;
38089;SDS011;23904;52.322;10.232;2023-05-20T03:25:30;3.35;;;1.75;;
38089;SDS011;23904;52.322;10.232;2023-05-20T03:27:56;3.28;;;1.80;;
38089;SDS011;23904;52.322;10.232;2023-05-20T03:30:25;3.88;;;2.08;;
38089;SDS011;23904;52.322;10.232;2023-05-20T03:32:52;4.85;;;2.28;;
38089;SDS011;23904;52.322;10.232;2023-05-20T03:35:18;8.93;;;2.17;;
38089;SDS011;23904;52.322;10.232;2023-05-20T03:37:43;4.75;;;2.00;;
38089;SDS011;23904;52.322;10.232;2023-05-20T03:40:09;4.70;;;1.65;;
38089;SDS011;23904;52.322;10.232;2023-05-20T03:42:35;7.38;;;1.95;;
38089;SDS011;23904;52.322;10.232;2023-05-20T03:45:02;6.35;;;2.20;;
38089;SDS011;23904;52.322;10.232;2023-05-20T03:47:28;4.25;;;1.88;;
38089;SDS011;23904;52.322;10.232;2023-05-20T03:49:53;4.80;;;2.15;;
38089;SDS011;23904;52.322;10.232;2023-05-20T03:52:19;3.88;;;2.08;;
38089;SDS011;23904;52.322;10.232;2023-05-20T03:54:45;4.90;;;1.83;;
38089;SDS011;23904;52.322;10.232;2023-05-20T03:57:10;4.53;;;2.20;;
38089;SDS011;23904;52.322;10.232;2023-05-20T03:59:36;4.65;;;2.00;;
38089;SDS011;23904;52.322;10.232;2023-05-20T04:02:02;6.22;;;2.35;;
38089;SDS011;23904;52.322;10.232;2023-05-20T04:04:28;3.80;;;1.85;;
38089;SDS011;23904;52.322;10.232;2023-05-20T04:06:54;4.13;;;2.08;;
38089;SDS011;23904;52.322;10.232;2023-05-20T04:09:20;4.25;;;1.85;;
38089;SDS011;23904;52.322;10.232;2023-05-20T04:11:46;3.97;;;2.20;;
38089;SDS011;23904;52.322;10.232;2023-05-20T04:14:12;3.67;;;2.05;;
38089;SDS011;23904;52.322;10.232;2023-05-20T04:16:39;6.88;;;2.50;;
38089;SDS011;23904;52.322;10.232;2023-05-20T04:19:05;6.03;;;2.22;;
38089;SDS011;23904;52.322;10.232;2023-05-20T04:21:31;4.63;;;1.95;;
38089;SDS011;23904;52.322;10.232;2023-05-20T04:23:56;5.75;;;2.45;;
38089;SDS011;23904;52.322;10.232;2023-05-20T04:26:22;5.28;;;2.17;;
38089;SDS011;23904;52.322;10.232;2023-05-20T04:28:47;8.32;;;2.75;;
38089;SDS011;23904;52.322;10.232;2023-05-20T04:31:13;4.75;;;2.17;;
38089;SDS011;23904;52.322;10.232;2023-05-20T04:33:39;7.35;;;2.17;;
38089;SDS011;23904;52.322;10.232;2023-05-20T04:36:05;6.60;;;3.08;;
38089;SDS011;23904;52.322;10.232;2023-05-20T04:38:33;7.97;;;2.70;;
38089;SDS011;23904;52.322;10.232;2023-05-20T04:40:59;4.38;;;2.35;;
38089;SDS011;23904;52.322;10.232;2023-05-20T04:43:26;6.68;;;2.63;;
38089;SDS011;23904;52.322;10.232;2023-05-20T04:45:54;3.00;;;1.88;;
38089;SDS011;23904;52.322;10.232;2023-05-20T04:48:20;5.03;;;2.38;;
38089;SDS011;23904;52.322;10.232;2023-05-20T04:50:46;10.95;;;2.50;;
38089;SDS011;23904;52.322;10.232;2023-05-20T04:53:13;4.90;;;2.45;;
38089;SDS011;23904;52.322;10.232;2023-05-20T04:55:48;4.85;;;2.53;;
38089;SDS011;23904;52.322;10.232;2023-05-20T04:58:17;5.47;;;2.30;;
38089;SDS011;23904;52.322;10.232;2023-05-20T05:00:43;5.55;;;2.55;;
38089;SDS011;23904;52.322;10.232;2023-05-20T05:03:10;5.25;;;3.08;;
38089;SDS011;23904;52.322;10.232;2023-05-20T05:05:39;7.00;;;2.95;;
38089;SDS011;23904;52.322;10.232;2023-05-20T05:08:06;7.80;;;3.13;;
38089;SDS011;23904;52.322;10.232;2023-05-20T05:10:33;7.18;;;2.65;;
38089;SDS011;23904;52.322;10.232;2023-05-20T05:12:59;9.20;;;3.35;;
38089;SDS011;23904;52.322;10.232;2023-05-20T05:15:26;8.52;;;3.17;;
38089;SDS011;23904;52.322;10.232;2023-05-20T05:17:52;5.18;;;3.00;;
38089;SDS011;23904;52.322;10.232;2023-05-20T05:20:18;7.28;;;3.08;;
38089;SDS011;23904;52.322;10.232;2023-05-20T05:22:44;4.97;;;3.13;;
38089;SDS011;23904;52.322;10.232;2023-05-20T05:25:10;11.40;;;3.85;;
38089;SDS011;23904;52.322;10.232;2023-05-20T05:27:36;8.65;;;3.15;;
38089;SDS011;23904;52.322;10.232;2023-05-20T05:30:03;5.35;;;3.42;;
38089;SDS011;23904;52.322;10.232;2023-05-20T05:32:30;7.22;;;2.97;;
38089;SDS011;23904;52.322;10.232;2023-05-20T05:34:56;6.45;;;3.55;;
38089;SDS011;23904;52.322;10.232;2023-05-20T05:37:21;7.95;;;3.50;;
38089;SDS011;23904;52.322;10.232;2023-05-20T05:39:47;9.23;;;3.50;;
38089;SDS011;23904;52.322;10.232;2023-05-20T05:42:13;8.30;;;3.78;;
38089;SDS011;23904;52.322;10.232;2023-05-20T05:44:38;5.70;;;3.95;;
38089;SDS011;23904;52.322;10.232;2023-05-20T05:47:04;7.68;;;4.60;;
38089;SDS011;23904;52.322;10.232;2023-05-20T05:49:30;8.68;;;3.72;;
38089;SDS011;23904;52.322;10.232;2023-05-20T05:51:57;5.88;;;3.53;;
38089;SDS011;23904;52.322;10.232;2023-05-20T05:54:22;10.63;;;4.22;;
38089;SDS011;23904;52.322;10.232;2023-05-20T05:56:50;7.50;;;3.95;;
38089;SDS011;23904;52.322;10.232;2023-05-20T05:59:16;9.02;;;4.35;;
38089;SDS011;23904;52.322;10.232;2023-05-20T06:01:41;9.18;;;4.43;;
38089;SDS011;23904;52.322;10.232;2023-05-20T06:04:07;8.93;;;4.03;;
38089;SDS011;23904;52.322;10.232;2023-05-20T06:06:32;6.32;;;3.83;;
38089;SDS011;23904;52.322;10.232;2023-05-20T06:08:58;6.18;;;3.58;;
38089;SDS011;23904;52.322;10.232;2023-05-20T06:11:23;11.32;;;4.82;;
38089;SDS011;23904;52.322;10.232;2023-05-20T06:13:50;6.95;;;4.18;;
38089;SDS011;23904;52.322;10.232;2023-05-20T06:16:16;8.60;;;4.22;;
38089;SDS011;23904;52.322;10.232;2023-05-20T06:18:42;9.20;;;3.90;;
38089;SDS011;23904;52.322;10.232;2023-05-20T06:21:10;9.27;;;4.72;;
38089;SDS011;23904;52.322;10.232;2023-05-20T06:23:35;8.48;;;4.63;;
38089;SDS011;23904;52.322;10.232;2023-05-20T06:26:01;11.00;;;4.20;;
38089;SDS011;23904;52.322;10.232;2023-05-20T06:28:27;9.07;;;4.60;;
38089;SDS011;23904;52.322;10.232;2023-05-20T06:30:54;9.60;;;5.50;;
38089;SDS011;23904;52.322;10.232;2023-05-20T06:33:21;8.90;;;5.00;;
38089;SDS011;23904;52.322;10.232;2023-05-20T06:35:50;9.25;;;5.47;;
38089;SDS011;23904;52.322;10.232;2023-05-20T06:38:16;8.95;;;5.43;;
38089;SDS011;23904;52.322;10.232;2023-05-20T06:40:42;8.18;;;5.22;;
38089;SDS011;23904;52.322;10.232;2023-05-20T06:43:08;9.27;;;6.03;;
38089;SDS011;23904;52.322;10.232;2023-05-20T06:45:33;10.43;;;6.32;;
38089;SDS011;23904;52.322;10.232;2023-05-20T06:47:59;10.48;;;6.80;;
38089;SDS011;23904;52.322;10.232;2023-05-20T06:50:25;14.65;;;6.72;;
38089;SDS011;23904;52.322;10.232;2023-05-20T06:52:52;11.88;;;7.45;;
38089;SDS011;23904;52.322;10.232;2023-05-20T06:55:17;8.80;;;6.55;;
38089;SDS011;23904;52.322;10.232;2023-05-20T06:57:43;10.35;;;7.40;;
38089;SDS011;23904;52.322;10.232;2023-05-20T07:00:09;9.50;;;6.70;;
38089;SDS011;23904;52.322;10.232;2023-05-20T07:02:37;9.80;;;6.40;;
38089;SDS011;23904;52.322;10.232;2023-05-20T07:05:03;9.00;;;5.30;;
38089;SDS011;23904;52.322;10.232;2023-05-20T07:07:29;10.30;;;7.30;;
38089;SDS011;23904;52.322;10.232;2023-05-20T07:09:56;12.25;;;6.80;;
38089;SDS011;23904;52.322;10.232;2023-05-20T07:12:22;9.43;;;6.28;;
38089;SDS011;23904;52.322;10.232;2023-05-20T07:14:48;13.98;;;6.53;;
38089;SDS011;23904;52.322;10.232;2023-05-20T07:17:13;10.15;;;6.80;;
38089;SDS011;23904;52.322;10.232;2023-05-20T07:19:39;10.38;;;6.63;;
38089;SDS011;23904;52.322;10.232;2023-05-20T07:22:04;12.15;;;7.05;;
38089;SDS011;23904;52.322;10.232;2023-05-20T07:24:30;14.90;;;7.55;;
38089;SDS011;23904;52.322;10.232;2023-05-20T07:26:55;9.18;;;6.15;;
38089;SDS011;23904;52.322;10.232;2023-05-20T07:29:21;10.63;;;6.50;;
38089;SDS011;23904;52.322;10.232;2023-05-20T07:31:47;10.02;;;6.55;;
38089;SDS011;23904;52.322;10.232;2023-05-20T07:34:12;9.95;;;6.18;;
38089;SDS011;23904;52.322;10.232;2023-05-20T07:36:38;10.65;;;7.18;;
38089;SDS011;23904;52.322;10.232;2023-05-20T07:39:03;9.20;;;5.35;;
38089;SDS011;23904;52.322;10.232;2023-05-20T07:41:29;8.85;;;6.35;;
38089;SDS011;23904;52.322;10.232;2023-05-20T07:43:55;12.10;;;6.05;;
38089;SDS011;23904;52.322;10.232;2023-05-20T07:46:20;10.25;;;5.63;;
38089;SDS011;23904;52.322;10.232;2023-05-20T07:48:46;8.85;;;5.78;;
38089;SDS011;23904;52.322;10.232;2023-05-20T07:51:11;8.40;;;5.10;;
38089;SDS011;23904;52.322;10.232;2023-05-20T07:53:37;8.77;;;5.63;;
38089;SDS011;23904;52.322;10.232;2023-05-20T07:56:03;7.72;;;4.97;;
38089;SDS011;23904;52.322;10.232;2023-05-20T07:58:30;6.03;;;4.78;;
38089;SDS011;23904;52.322;10.232;2023-05-20T08:00:55;7.30;;;4.60;;
38089;SDS011;23904;52.322;10.232;2023-05-20T08:03:21;9.55;;;4.55;;
38089;SDS011;23904;52.322;10.232;2023-05-20T08:05:47;7.43;;;5.30;;
38089;SDS011;23904;52.322;10.232;2023-05-20T08:08:13;7.25;;;3.95;;
38089;SDS011;23904;52.322;10.232;2023-05-20T08:10:39;7.43;;;5.05;;
38089;SDS011;23904;52.322;10.232;2023-05-20T08:13:04;5.57;;;4.00;;
38089;SDS011;23904;52.322;10.232;2023-05-20T08:15:30;7.35;;;4.57;;
38089;SDS011;23904;52.322;10.232;2023-05-20T08:17:55;7.47;;;5.03;;
38089;SDS011;23904;52.322;10.232;2023-05-20T08:20:21;6.45;;;3.80;;
38089;SDS011;23904;52.322;10.232;2023-05-20T08:22:46;9.30;;;4.15;;
38089;SDS011;23904;52.322;10.232;2023-05-20T08:25:12;10.60;;;4.75;;
38089;SDS011;23904;52.322;10.232;2023-05-20T08:27:39;5.95;;;4.18;;
38089;SDS011;23904;52.322;10.232;2023-05-20T08:30:05;10.80;;;4.20;;
38089;SDS011;23904;52.322;10.232;2023-05-20T08:32:34;8.63;;;4.70;;
38089;SDS011;23904;52.322;10.232;2023-05-20T08:35:00;12.23;;;3.95;;
38089;SDS011;23904;52.322;10.232;2023-05-20T08:37:27;7.18;;;3.95;;
38089;SDS011;23904;52.322;10.232;2023-05-20T08:39:53;6.30;;;3.40;;
38089;SDS011;23904;52.322;10.232;2023-05-20T08:42:23;8.55;;;4.50;;
38089;SDS011;23904;52.322;10.232;2023-05-20T08:44:50;9.95;;;3.55;;
38089;SDS011;23904;52.322;10.232;2023-05-20T08:47:16;9.05;;;3.53;;
38089;SDS011;23904;52.322;10.232;2023-05-20T08:49:45;7.43;;;4.32;;
38089;SDS011;23904;52.322;10.232;2023-05-20T08:52:15;5.43;;;3.58;;
38089;SDS011;23904;52.322;10.232;2023-05-20T08:54:46;9.75;;;4.22;;
38089;SDS011;23904;52.322;10.232;2023-05-20T08:57:14;6.85;;;3.88;;
38089;SDS011;23904;52.322;10.232;2023-05-20T08:59:43;8.52;;;4.28;;
38089;SDS011;23904;52.322;10.232;2023-05-20T09:02:10;8.73;;;4.20;;
38089;SDS011;23904;52.322;10.232;2023-05-20T09:04:36;7.65;;;4.05;;
38089;SDS011;23904;52.322;10.232;2023-05-20T09:07:02;5.53;;;3.72;;
38089;SDS011;23904;52.322;10.232;2023-05-20T09:09:29;5.95;;;3.28;;
38089;SDS011;23904;52.322;10.232;2023-05-20T09:11:57;6.30;;;3.60;;
38089;SDS011;23904;52.322;10.232;2023-05-20T09:14:25;7.28;;;3.53;;
38089;SDS011;23904;52.322;10.232;2023-05-20T09:16:52;5.85;;;3.50;;
38089;SDS011;23904;52.322;10.232;2023-05-20T09:19:21;7.70;;;3.58;;
38089;SDS011;23904;52.322;10.232;2023-05-20T09:21:47;7.07;;;3.85;;
38089;SDS011;23904;52.322;10.232;2023-05-20T09:24:19;8.35;;;3.97;;
38089;SDS011;23904;52.322;10.232;2023-05-20T09:26:47;8.23;;;4.18;;
38089;SDS011;23904;52.322;10.232;2023-05-20T09:29:14;7.63;;;3.65;;
38089;SDS011;23904;52.322;10.232;2023-05-20T09:31:39;5.70;;;3.40;;
38089;SDS011;23904;52.322;10.232;2023-05-20T09:34:05;7.25;;;3.83;;
38089;SDS011;23904;52.322;10.232;2023-05-20T09:36:31;8.32;;;3.38;;
38089;SDS011;23904;52.322;10.232;2023-05-20T09:38:59;6.32;;;3.92;;
38089;SDS011;23904;52.322;10.232;2023-05-20T09:41:32;5.03;;;3.38;;
38089;SDS011;23904;52.322;10.232;2023-05-20T09:44:03;7.00;;;4.30;;
38089;SDS011;23904;52.322;10.232;2023-05-20T09:46:30;8.00;;;4.43;;
38089;SDS011;23904;52.322;10.232;2023-05-20T09:48:58;9.18;;;4.70;;
38089;SDS011;23904;52.322;10.232;2023-05-20T09:51:23;7.05;;;4.07;;
38089;SDS011;23904;52.322;10.232;2023-05-20T09:53:53;8.18;;;4.43;;
38089;SDS011;23904;52.322;10.232;2023-05-20T09:56:20;10.88;;;4.45;;
38089;SDS011;23904;52.322;10.232;2023-05-20T09:58:49;10.65;;;4.68;;
38089;SDS011;23904;52.322;10.232;2023-05-20T10:01:21;6.35;;;4.20;;
38089;SDS011;23904;52.322;10.232;2023-05-20T10:03:48;5.70;;;3.97;;
38089;SDS011;23904;52.322;10.232;2023-05-20T10:09:13;6.95;;;4.70;;
38089;SDS011;23904;52.322;10.232;2023-05-20T10:20:45;8.35;;;4.35;;
38089;SDS011;23904;52.322;10.232;2023-05-20T10:23:27;7.80;;;5.03;;
38089;SDS011;23904;52.322;10.232;2023-05-20T10:25:57;9.40;;;4.80;;
38089;SDS011;23904;52.322;10.232;2023-05-20T10:28:30;7.80;;;4.55;;
38089;SDS011;23904;52.322;10.232;2023-05-20T10:31:00;7.50;;;4.50;;
38089;SDS011;23904;52.322;10.232;2023-05-20T10:33:26;7.93;;;4.57;;
38089;SDS011;23904;52.322;10.232;2023-05-20T10:35:53;7.68;;;3.65;;
38089;SDS011;23904;52.322;10.232;2023-05-20T10:38:23;8.85;;;4.03;;
38089;SDS011;23904;52.322;10.232;2023-05-20T10:40:49;8.70;;;5.05;;
38089;SDS011;23904;52.322;10.232;2023-05-20T10:43:15;8.13;;;4.72;;
38089;SDS011;23904;52.322;10.232;2023-05-20T10:45:54;10.13;;;5.45;;
38089;SDS011;23904;52.322;10.232;2023-05-20T10:50:55;8.13;;;5.20;;
38089;SDS011;23904;52.322;10.232;2023-05-20T10:53:27;7.90;;;4.05;;
38089;SDS011;23904;52.322;10.232;2023-05-20T10:55:53;8.93;;;5.25;;
38089;SDS011;23904;52.322;10.232;2023-05-20T10:58:21;8.40;;;4.68;;
38089;SDS011;23904;52.322;10.232;2023-05-20T11:00:48;10.50;;;4.88;;
38089;SDS011;23904;52.322;10.232;2023-05-20T11:03:16;9.93;;;5.70;;
38089;SDS011;23904;52.322;10.232;2023-05-20T11:05:45;7.07;;;5.07;;
38089;SDS011;23904;52.322;10.232;2023-05-20T11:08:11;10.40;;;5.68;;
38089;SDS011;23904;52.322;10.232;2023-05-20T11:10:38;14.63;;;6.57;;
38089;SDS011;23904;52.322;10.232;2023-05-20T11:13:06;8.88;;;5.53;;
38089;SDS011;23904;52.322;10.232;2023-05-20T11:15:35;9.48;;;5.55;;
38089;SDS011;23904;52.322;10.232;2023-05-20T11:18:02;7.32;;;5.35;;
38089;SDS011;23904;52.322;10.232;2023-05-20T11:20:29;8.32;;;5.35;;
38089;SDS011;23904;52.322;10.232;2023-05-20T11:22:58;8.77;;;5.28;;
38089;SDS011;23904;52.322;10.232;2023-05-20T11:25:24;9.05;;;5.32;;
38089;SDS011;23904;52.322;10.232;2023-05-20T11:27:52;10.15;;;5.38;;
38089;SDS011;23904;52.322;10.232;2023-05-20T11:30:18;6.35;;;4.60;;
38089;SDS011;23904;52.322;10.232;2023-05-20T11:32:58;10.77;;;5.35;;
38089;SDS011;23904;52.322;10.232;2023-05-20T11:35:25;8.18;;;4.85;;
38089;SDS011;23904;52.322;10.232;2023-05-20T11:37:59;9.48;;;4.65;;
38089;SDS011;23904;52.322;10.232;2023-05-20T11:40:30;6.22;;;4.53;;
38089;SDS011;23904;52.322;10.232;2023-05-20T11:42:59;6.90;;;5.00;;
38089;SDS011;23904;52.322;10.232;2023-05-20T11:45:37;7.85;;;5.07;;
38089;SDS011;23904;52.322;10.232;2023-05-20T11:48:05;8.05;;;5.05;;
38089;SDS011;23904;52.322;10.232;2023-05-20T11:50:35;8.07;;;5.05;;
38089;SDS011;23904;52.322;10.232;2023-05-20T11:53:05;6.55;;;5.00;;
38089;SDS011;23904;52.322;10.232;2023-05-20T11:55:33;11.18;;;5.38;;
38089;SDS011;23904;52.322;10.232;2023-05-20T11:58:10;7.88;;;5.07;;
38089;SDS011;23904;52.322;10.232;2023-05-20T12:00:39;11.02;;;4.97;;
38089;SDS011;23904;52.322;10.232;2023-05-20T12:03:05;8.70;;;4.70;;
38089;SDS011;23904;52.322;10.232;2023-05-20T12:05:30;7.97;;;4.82;;
38089;SDS011;23904;52.322;10.232;2023-05-20T12:07:56;8.05;;;5.20;;
38089;SDS011;23904;52.322;10.232;2023-05-20T12:10:21;10.73;;;5.13;;
38089;SDS011;23904;52.322;10.232;2023-05-20T12:12:47;6.32;;;4.53;;
38089;SDS011;23904;52.322;10.232;2023-05-20T12:15:13;7.60;;;5.38;;
38089;SDS011;23904;52.322;10.232;2023-05-20T12:17:45;9.93;;;6.03;;
38089;SDS011;23904;52.322;10.232;2023-05-20T12:20:13;8.88;;;5.93;;
38089;SDS011;23904;52.322;10.232;2023-05-20T12:22:44;10.57;;;5.80;;
38089;SDS011;23904;52.322;10.232;2023-05-20T12:25:13;6.95;;;5.47;;
38089;SDS011;23904;52.322;10.232;2023-05-20T12:27:41;9.25;;;5.70;;
38089;SDS011;23904;52.322;10.232;2023-05-20T12:30:12;8.65;;;5.25;;
38089;SDS011;23904;52.322;10.232;2023-05-20T12:32:41;10.65;;;6.20;;
38089;SDS011;23904;52.322;10.232;2023-05-20T12:35:08;8.88;;;5.55;;
38089;SDS011;23904;52.322;10.232;2023-05-20T12:37:35;7.03;;;5.30;;
38089;SDS011;23904;52.322;10.232;2023-05-20T12:40:01;7.65;;;5.43;;
38089;SDS011;23904;52.322;10.232;2023-05-20T12:42:36;10.65;;;5.90;;
38089;SDS011;23904;52.322;10.232;2023-05-20T12:45:03;10.65;;;5.93;;
38089;SDS011;23904;52.322;10.232;2023-05-20T12:47:32;9.00;;;5.00;;
38089;SDS011;23904;52.322;10.232;2023-05-20T12:49:59;8.98;;;5.72;;
38089;SDS011;23904;52.322;10.232;2023-05-20T12:52:25;7.18;;;5.43;;
38089;SDS011;23904;52.322;10.232;2023-05-20T12:54:55;8.88;;;4.85;;
38089;SDS011;23904;52.322;10.232;2023-05-20T12:57:21;11.30;;;6.30;;
38089;SDS011;23904;52.322;10.232;2023-05-20T12:59:50;10.27;;;5.70;;
38089;SDS011;23904;52.322;10.232;2023-05-20T13:02:15;10.70;;;5.60;;
38089;SDS011;23904;52.322;10.232;2023-05-20T13:04:41;9.70;;;6.20;;
38089;SDS011;23904;52.322;10.232;2023-05-20T13:07:07;7.25;;;5.05;;
38089;SDS011;23904;52.322;10.232;2023-05-20T13:09:33;14.70;;;5.70;;
38089;SDS011;23904;52.322;10.232;2023-05-20T13:11:59;9.25;;;5.25;;
38089;SDS011;23904;52.322;10.232;2023-05-20T13:14:25;7.43;;;4.72;;
38089;SDS011;23904;52.322;10.232;2023-05-20T13:16:51;10.88;;;5.55;;
38089;SDS011;23904;52.322;10.232;2023-05-20T13:19:19;11.95;;;5.95;;
38089;SDS011;23904;52.322;10.232;2023-05-20T13:21:46;8.05;;;5.80;;
38089;SDS011;23904;52.322;10.232;2023-05-20T13:24:16;10.90;;;5.82;;
38089;SDS011;23904;52.322;10.232;2023-05-20T13:26:42;8.00;;;5.07;;
38089;SDS011;23904;52.322;10.232;2023-05-20T13:29:07;9.30;;;5.68;;
38089;SDS011;23904;52.322;10.232;2023-05-20T13:31:34;8.23;;;5.65;;
38089;SDS011;23904;52.322;10.232;2023-05-20T13:33:59;9.77;;;5.65;;
38089;SDS011;23904;52.322;10.232;2023-05-20T13:36:25;8.73;;;5.22;;
38089;SDS011;23904;52.322;10.232;2023-05-20T13:38:51;8.85;;;6.03;;
38089;SDS011;23904;52.322;10.232;2023-05-20T13:41:17;9.32;;;5.75;;
38089;SDS011;23904;52.322;10.232;2023-05-20T13:43:42;10.07;;;5.55;;
38089;SDS011;23904;52.322;10.232;2023-05-20T13:46:08;21.63;;;6.57;;
38089;SDS011;23904;52.322;10.232;2023-05-20T13:48:33;9.52;;;5.72;;
38089;SDS011;23904;52.322;10.232;2023-05-20T13:50:59;9.60;;;5.72;;
38089;SDS011;23904;52.322;10.232;2023-05-20T13:53:25;7.78;;;5.30;;
38089;SDS011;23904;52.322;10.232;2023-05-20T13:55:52;8.52;;;6.03;;
38089;SDS011;23904;52.322;10.232;2023-05-20T13:58:17;12.43;;;6.50;;
38089;SDS011;23904;52.322;10.232;2023-05-20T14:00:43;7.25;;;5.50;;
38089;SDS011;23904;52.322;10.232;2023-05-20T14:03:09;8.48;;;5.43;;
38089;SDS011;23904;52.322;10.232;2023-05-20T14:05:35;8.63;;;5.78;;
38089;SDS011;23904;52.322;10.232;2023-05-20T14:08:01;11.40;;;6.30;;
38089;SDS011;23904;52.322;10.232;2023-05-20T14:10:27;12.30;;;5.55;;
38089;SDS011;23904;52.322;10.232;2023-05-20T14:12:52;9.95;;;6.20;;
38089;SDS011;23904;52.322;10.232;2023-05-20T14:15:22;10.90;;;6.18;;
38089;SDS011;23904;52.322;10.232;2023-05-20T14:17:47;14.18;;;5.70;;
38089;SDS011;23904;52.322;10.232;2023-05-20T14:20:14;11.55;;;6.25;;
38089;SDS011;23904;52.322;10.232;2023-05-20T14:22:40;8.57;;;5.85;;
38089;SDS011;23904;52.322;10.232;2023-05-20T14:25:06;8.95;;;5.47;;
38089;SDS011;23904;52.322;10.232;2023-05-20T14:27:32;8.48;;;5.85;;
38089;SDS011;23904;52.322;10.232;2023-05-20T14:29:58;7.97;;;5.20;;
38089;SDS011;23904;52.322;10.232;2023-05-20T14:32:24;9.32;;;6.38;;
38089;SDS011;23904;52.322;10.232;2023-05-20T14:34:50;9.98;;;5.97;;
38089;SDS011;23904;52.322;10.232;2023-05-20T14:37:16;8.60;;;6.07;;
38089;SDS011;23904;52.322;10.232;2023-05-20T14:39:42;10.68;;;5.93;;
38089;SDS011;23904;52.322;10.232;2023-05-20T14:42:07;14.75;;;7.00;;
38089;SDS011;23904;52.322;10.232;2023-05-20T14:44:37;8.55;;;5.97;;